Time;durP1;ratioP1;P1;durP2;ratioP2;P2;SDS_P1;SDS_P2;PMS_P1;PMS_P2;Temp;Humidity;BMP_temperature;BMP_pressure;BME280_temperature;BME280_humidity;BME280_pressure;Samples;Min_cycle;Max_cycle;Signal;HPM_P1;HPM_P2
2023/10/30 00:01:32;;;;;;;9.70;2.40;;;11.90;62.00;;;;;;5074346;28;20407;-73
2023/10/30 00:03:57;;;;;;;10.05;2.10;;;11.90;61.80;;;;;;5073417;28;20404;-74
2023/10/30 00:06:23;;;;;;;13.50;2.60;;;12.00;60.50;;;;;;5072992;28;20382;-75
2023/10/30 00:08:48;;;;;;;9.95;2.42;;;12.10;59.80;;;;;;5073429;28;20378;-72
2023/10/30 00:11:14;;;;;;;13.80;2.70;;;12.10;60.40;;;;;;5071739;28;20395;-74
2023/10/30 00:13:41;;;;;;;10.77;2.50;;;12.10;60.00;;;;;;5073213;28;20384;-74
2023/10/30 00:16:09;;;;;;;14.70;2.53;;;12.10;60.70;;;;;;5072863;28;20903;-74
2023/10/30 00:18:35;;;;;;;10.45;2.45;;;12.00;60.70;;;;;;5072906;28;20417;-73
2023/10/30 00:21:01;;;;;;;10.45;2.47;;;12.10;59.90;;;;;;5072924;28;20379;-74
2023/10/30 00:23:28;;;;;;;13.50;2.43;;;12.10;59.50;;;;;;5073306;28;20510;-74
2023/10/30 00:25:55;;;;;;;10.50;2.88;;;12.10;59.60;;;;;;5073797;28;20388;-74
2023/10/30 00:28:20;;;;;;;16.50;2.50;;;12.10;59.80;;;;;;5074406;28;20412;-75
2023/10/30 00:30:46;;;;;;;12.07;2.50;;;12.10;59.70;;;;;;5073705;28;20418;-74
2023/10/30 00:33:11;;;;;;;15.90;2.40;;;12.10;60.20;;;;;;5074257;28;20384;-74
2023/10/30 00:35:37;;;;;;;10.17;2.70;;;12.20;59.20;;;;;;5074537;28;20874;-73
2023/10/30 00:38:03;;;;;;;13.00;2.65;;;12.10;59.50;;;;;;5075190;28;20746;-74
2023/10/30 00:40:28;;;;;;;13.23;2.40;;;12.10;59.50;;;;;;5075300;28;20384;-74
2023/10/30 00:42:54;;;;;;;12.90;2.63;;;12.20;59.40;;;;;;5075567;28;20894;-73
2023/10/30 00:45:19;;;;;;;13.82;2.40;;;12.20;59.70;;;;;;5074315;28;20384;-73
2023/10/30 00:47:45;;;;;;;13.73;2.70;;;12.10;61.10;;;;;;5072752;28;20376;-75
2023/10/30 00:50:10;;;;;;;8.37;2.10;;;12.10;61.10;;;;;;5073110;28;20741;-76
2023/10/30 00:52:36;;;;;;;13.23;2.95;;;12.10;61.30;;;;;;5072818;28;20925;-74
2023/10/30 00:55:02;;;;;;;14.02;2.40;;;12.10;61.10;;;;;;5072387;28;20423;-74
2023/10/30 00:57:28;;;;;;;13.15;2.42;;;12.20;60.70;;;;;;5072393;28;20384;-73
2023/10/30 00:59:54;;;;;;;9.60;2.10;;;12.20;59.90;;;;;;5072543;28;20380;-74
2023/10/30 01:02:19;;;;;;;14.63;2.72;;;12.20;60.10;;;;;;5072043;28;20414;-73
2023/10/30 01:04:45;;;;;;;14.43;3.20;;;12.20;60.40;;;;;;5072275;28;20384;-73
2023/10/30 01:07:11;;;;;;;7.20;1.93;;;12.20;60.30;;;;;;5072428;28;20919;-74
2023/10/30 01:09:36;;;;;;;12.32;2.90;;;12.20;60.10;;;;;;5072906;28;20379;-73
2023/10/30 01:12:02;;;;;;;12.32;2.50;;;12.30;60.50;;;;;;5073110;28;20402;-74
2023/10/30 01:14:27;;;;;;;14.60;2.30;;;12.30;60.10;;;;;;5072933;28;20815;-75
2023/10/30 01:16:53;;;;;;;12.33;2.60;;;12.20;61.10;;;;;;5073109;28;20697;-74
2023/10/30 01:19:19;;;;;;;13.07;2.70;;;12.20;61.30;;;;;;5073049;28;20389;-74
2023/10/30 01:21:45;;;;;;;15.17;2.20;;;12.20;61.70;;;;;;5072744;28;20380;-75
2023/10/30 01:24:11;;;;;;;15.57;2.88;;;12.20;62.10;;;;;;5072998;28;20510;-73
2023/10/30 01:26:38;;;;;;;11.25;2.70;;;12.20;62.00;;;;;;5071368;28;20384;-72
2023/10/30 01:29:04;;;;;;;13.30;2.40;;;12.20;61.80;;;;;;5072236;28;20378;-73
2023/10/30 01:31:30;;;;;;;10.10;2.58;;;12.20;61.80;;;;;;5071394;28;20467;-71
2023/10/30 01:33:56;;;;;;;12.40;2.50;;;12.20;62.20;;;;;;5071750;28;20422;-73
2023/10/30 01:36:22;;;;;;;12.05;2.38;;;12.20;62.30;;;;;;5072047;28;20392;-73
2023/10/30 01:38:47;;;;;;;10.67;2.80;;;12.30;61.60;;;;;;5072546;28;20388;-73
2023/10/30 01:41:13;;;;;;;13.20;2.60;;;12.20;62.30;;;;;;5072048;28;20383;-73
2023/10/30 01:43:38;;;;;;;10.07;2.40;;;12.30;61.50;;;;;;5071861;28;20408;-73
2023/10/30 01:46:05;;;;;;;11.75;2.60;;;12.30;61.70;;;;;;5069606;28;20392;-74
2023/10/30 01:48:33;;;;;;;12.88;2.10;;;12.30;61.40;;;;;;5071675;28;20380;-73
2023/10/30 01:51:00;;;;;;;11.32;2.88;;;12.30;61.40;;;;;;5072348;28;20915;-74
2023/10/30 01:53:27;;;;;;;13.32;2.50;;;12.40;61.30;;;;;;5072710;28;20384;-74
2023/10/30 01:55:55;;;;;;;9.27;2.65;;;12.30;61.30;;;;;;5071926;28;20731;-74
2023/10/30 01:58:22;;;;;;;9.18;2.33;;;12.30;61.60;;;;;;5072871;28;20380;-73
2023/10/30 02:00:49;;;;;;;11.32;2.60;;;12.40;61.60;;;;;;5071648;28;20384;-74
2023/10/30 02:03:14;;;;;;;15.57;2.88;;;12.40;61.60;;;;;;5072366;28;20559;-73
2023/10/30 02:05:40;;;;;;;18.35;2.92;;;12.30;62.20;;;;;;5072294;28;20395;-73
2023/10/30 02:08:07;;;;;;;10.98;2.28;;;12.20;62.70;;;;;;5072560;28;20472;-74
2023/10/30 02:10:32;;;;;;;14.43;2.50;;;12.20;63.50;;;;;;5072154;28;20394;-74
2023/10/30 02:12:58;;;;;;;13.90;2.50;;;12.30;62.50;;;;;;5072426;28;20384;-73
2023/10/30 02:15:23;;;;;;;9.80;2.90;;;12.30;61.90;;;;;;5072181;28;20387;-73
2023/10/30 02:17:49;;;;;;;13.37;2.67;;;12.30;61.80;;;;;;5070891;28;20386;-73
2023/10/30 02:20:15;;;;;;;16.05;3.03;;;12.40;61.10;;;;;;5071582;28;20414;-74
2023/10/30 02:22:40;;;;;;;13.65;3.08;;;12.40;60.90;;;;;;5072414;28;20403;-74
2023/10/30 02:25:06;;;;;;;10.35;2.40;;;12.30;61.70;;;;;;5071516;28;20402;-74
2023/10/30 02:27:32;;;;;;;19.05;3.15;;;12.40;60.60;;;;;;5072212;28;20809;-73
2023/10/30 02:29:58;;;;;;;12.15;2.55;;;12.40;60.20;;;;;;5072101;28;20470;-73
2023/10/30 02:32:23;;;;;;;14.93;2.53;;;12.40;60.40;;;;;;5071946;28;20395;-74
2023/10/30 02:34:49;;;;;;;13.55;3.00;;;12.30;61.10;;;;;;5071829;28;20788;-75
2023/10/30 02:37:14;;;;;;;12.48;2.70;;;12.30;61.60;;;;;;5072130;28;20434;-75
2023/10/30 02:39:40;;;;;;;10.43;2.70;;;12.30;62.30;;;;;;5072905;28;20467;-75
2023/10/30 02:42:06;;;;;;;12.05;2.60;;;12.30;61.80;;;;;;5072310;28;20388;-74
2023/10/30 02:44:32;;;;;;;12.90;2.67;;;12.20;62.60;;;;;;5071379;28;20407;-74
2023/10/30 02:46:57;;;;;;;13.77;2.60;;;12.30;62.60;;;;;;5069140;28;20920;-72
2023/10/30 02:49:25;;;;;;;11.20;2.70;;;12.20;63.80;;;;;;5070858;28;20386;-74
2023/10/30 02:51:50;;;;;;;11.90;2.55;;;12.20;63.10;;;;;;5070973;28;20687;-74
2023/10/30 02:54:16;;;;;;;12.70;2.60;;;12.20;63.30;;;;;;5070719;28;20384;-74
2023/10/30 02:56:42;;;;;;;11.90;3.10;;;12.20;63.60;;;;;;5070796;28;20882;-73
2023/10/30 02:59:07;;;;;;;15.20;2.77;;;12.20;63.90;;;;;;5070640;28;20904;-74
2023/10/30 03:01:33;;;;;;;9.95;2.20;;;12.20;64.70;;;;;;5070970;28;20387;-74
2023/10/30 03:04:00;;;;;;;11.98;2.40;;;12.20;64.60;;;;;;5071093;28;20399;-73
2023/10/30 03:06:26;;;;;;;12.10;2.70;;;12.10;64.80;;;;;;5070765;28;20374;-74
2023/10/30 03:08:52;;;;;;;13.02;2.90;;;12.10;65.40;;;;;;5072234;28;20750;-72
2023/10/30 03:11:17;;;;;;;13.68;2.85;;;12.10;66.10;;;;;;5076246;28;20426;-73
2023/10/30 03:13:43;;;;;;;10.97;3.10;;;12.10;66.20;;;;;;5076292;28;20387;-73
2023/10/30 03:16:08;;;;;;;14.37;2.80;;;12.00;66.20;;;;;;5075698;28;20461;-74
2023/10/30 03:18:34;;;;;;;11.30;2.43;;;12.00;67.10;;;;;;5075296;28;20750;-73
2023/10/30 03:21:00;;;;;;;8.50;2.22;;;12.00;66.10;;;;;;5075685;28;20433;-72
2023/10/30 03:23:26;;;;;;;14.77;2.83;;;11.90;67.60;;;;;;5075543;28;20894;-74
2023/10/30 03:25:51;;;;;;;13.07;2.75;;;11.90;68.70;;;;;;5074535;28;20379;-73
2023/10/30 03:28:17;;;;;;;12.98;2.90;;;11.90;68.20;;;;;;5075265;28;20376;-73
2023/10/30 03:30:42;;;;;;;15.77;2.60;;;12.00;68.50;;;;;;5074439;28;20938;-73
2023/10/30 03:33:08;;;;;;;12.52;2.70;;;11.90;69.00;;;;;;5074688;28;20391;-72
2023/10/30 03:35:38;;;;;;;14.27;2.90;;;11.90;69.50;;;;;;5074568;28;20411;-74
2023/10/30 03:38:04;;;;;;;13.82;3.13;;;12.00;68.40;;;;;;5093980;23;20434;-72
2023/10/30 03:40:30;;;;;;;12.57;2.35;;;12.00;67.20;;;;;;5072615;28;20492;-73
2023/10/30 03:42:55;;;;;;;11.23;3.17;;;12.20;65.70;;;;;;5074134;28;20497;-74
2023/10/30 03:45:21;;;;;;;10.93;2.45;;;12.20;66.60;;;;;;5073964;28;20866;-75
2023/10/30 03:47:46;;;;;;;12.43;2.72;;;12.00;66.90;;;;;;5073510;28;20862;-74
2023/10/30 03:50:16;;;;;;;8.13;2.40;;;12.00;67.80;;;;;;5073475;28;20745;-74
2023/10/30 03:52:43;;;;;;;10.07;2.42;;;12.00;68.10;;;;;;5073445;28;20750;-74
2023/10/30 03:55:09;;;;;;;8.73;2.60;;;11.90;68.80;;;;;;5073044;28;20390;-74
2023/10/30 03:57:34;;;;;;;14.13;2.80;;;12.00;68.30;;;;;;5073430;28;20395;-74
2023/10/30 04:00:00;;;;;;;14.43;2.95;;;12.00;67.80;;;;;;5073811;28;20380;-74
2023/10/30 04:02:25;;;;;;;18.93;3.50;;;12.00;68.10;;;;;;5073361;28;20453;-74
2023/10/30 04:04:51;;;;;;;10.57;2.50;;;12.00;67.90;;;;;;5073644;28;20397;-74
2023/10/30 04:07:17;;;;;;;13.93;2.30;;;12.00;67.80;;;;;;5073211;28;20372;-74
2023/10/30 04:09:42;;;;;;;11.47;2.40;;;12.00;67.90;;;;;;5073430;28;20421;-73
2023/10/30 04:12:08;;;;;;;14.85;2.50;;;12.00;68.30;;;;;;5073419;28;20380;-75
2023/10/30 04:14:33;;;;;;;14.57;3.17;;;12.00;68.70;;;;;;5072170;28;20437;-73
2023/10/30 04:17:02;;;;;;;11.82;2.75;;;12.00;68.20;;;;;;5073828;28;20403;-74
2023/10/30 04:19:28;;;;;;;16.73;3.23;;;12.00;68.60;;;;;;5073994;28;20374;-74
2023/10/30 04:21:53;;;;;;;13.50;3.30;;;12.00;68.90;;;;;;5074515;28;20466;-75
2023/10/30 04:24:19;;;;;;;17.70;3.40;;;12.00;68.40;;;;;;5073619;28;20398;-74
2023/10/30 04:26:44;;;;;;;16.50;3.43;;;12.00;69.00;;;;;;5072112;28;20975;-74
2023/10/30 04:29:10;;;;;;;30.43;4.40;;;12.00;69.40;;;;;;5075669;28;20455;-74
2023/10/30 04:31:36;;;;;;;14.15;2.80;;;12.00;69.80;;;;;;5075015;28;20384;-74
2023/10/30 04:34:01;;;;;;;20.07;3.60;;;11.90;70.20;;;;;;5073198;28;20446;-74
2023/10/30 04:36:27;;;;;;;11.37;3.13;;;11.90;71.00;;;;;;5071409;28;20394;-74
2023/10/30 04:38:52;;;;;;;8.93;2.70;;;11.90;71.00;;;;;;5073186;28;20445;-73
2023/10/30 04:41:18;;;;;;;18.07;3.60;;;11.80;71.10;;;;;;5072542;28;20426;-74
2023/10/30 04:43:43;;;;;;;14.02;2.90;;;11.80;72.50;;;;;;5072715;28;20395;-73
2023/10/30 04:46:09;;;;;;;13.40;3.30;;;11.70;73.00;;;;;;5072411;28;20487;-74
2023/10/30 04:48:34;;;;;;;14.93;2.80;;;11.70;73.60;;;;;;5071473;28;20386;-73
2023/10/30 04:51:00;;;;;;;17.50;3.20;;;11.70;73.50;;;;;;5072660;28;20387;-73
2023/10/30 04:53:29;;;;;;;15.80;2.90;;;11.70;74.40;;;;;;5072567;28;20480;-73
2023/10/30 04:55:56;;;;;;;19.75;3.15;;;11.70;75.00;;;;;;5072452;28;20388;-73
2023/10/30 04:58:22;;;;;;;16.05;3.10;;;11.80;74.30;;;;;;5072357;28;20866;-73
2023/10/30 05:00:47;;;;;;;13.10;2.80;;;11.70;74.60;;;;;;5072257;28;20403;-74
2023/10/30 05:03:13;;;;;;;12.65;2.70;;;11.70;75.30;;;;;;5072302;28;20845;-74
2023/10/30 05:05:39;;;;;;;22.70;3.80;;;11.60;76.50;;;;;;5072310;28;20518;-74
2023/10/30 05:08:05;;;;;;;15.43;2.92;;;11.60;77.40;;;;;;5072051;28;20437;-75
2023/10/30 05:10:30;;;;;;;13.68;2.60;;;11.50;78.30;;;;;;5072123;28;20425;-74
2023/10/30 05:12:56;;;;;;;14.93;3.50;;;11.50;78.40;;;;;;5075032;28;20379;-74
2023/10/30 05:15:22;;;;;;;16.13;3.10;;;11.50;79.30;;;;;;5071691;28;20380;-73
2023/10/30 05:17:47;;;;;;;12.17;2.90;;;11.60;78.20;;;;;;5072043;28;20624;-73
2023/10/30 05:20:13;;;;;;;10.33;2.70;;;11.50;79.50;;;;;;5071767;28;20614;-74
2023/10/30 05:22:40;;;;;;;18.37;3.00;;;11.50;79.10;;;;;;5071923;28;20391;-74
2023/10/30 05:25:05;;;;;;;14.27;3.60;;;11.40;80.40;;;;;;5071579;28;20384;-74
2023/10/30 05:27:31;;;;;;;12.83;3.00;;;11.50;80.70;;;;;;5071379;28;20383;-74
2023/10/30 05:29:57;;;;;;;18.08;3.20;;;11.40;80.30;;;;;;5072124;28;20837;-75
2023/10/30 05:32:23;;;;;;;9.98;2.80;;;11.40;81.10;;;;;;5072435;28;20392;-74
2023/10/30 05:34:49;;;;;;;13.88;3.40;;;11.50;81.00;;;;;;5072824;28;20427;-73
2023/10/30 05:37:15;;;;;;;18.83;3.20;;;11.50;80.80;;;;;;5071134;28;20456;-73
2023/10/30 05:39:42;;;;;;;14.23;3.20;;;11.50;81.40;;;;;;5071549;28;20470;-73
2023/10/30 05:42:08;;;;;;;13.88;3.33;;;11.60;79.60;;;;;;5072218;28;20735;-73
2023/10/30 05:44:33;;;;;;;10.67;3.43;;;11.60;79.50;;;;;;5072933;28;20391;-75
2023/10/30 05:46:59;;;;;;;8.90;2.77;;;11.60;79.40;;;;;;5071959;28;20383;-74
2023/10/30 05:49:26;;;;;;;14.03;3.17;;;11.60;78.50;;;;;;5072050;28;20448;-75
2023/10/30 05:51:55;;;;;;;11.20;3.27;;;11.70;79.30;;;;;;5072027;28;20859;-73
2023/10/30 05:54:21;;;;;;;13.43;2.90;;;11.60;78.30;;;;;;5071958;28;20376;-73
2023/10/30 05:56:47;;;;;;;7.85;2.70;;;11.60;78.80;;;;;;5073041;28;20379;-73
2023/10/30 05:59:12;;;;;;;11.20;3.10;;;11.60;78.20;;;;;;5073403;28;20834;-73
2023/10/30 06:01:38;;;;;;;13.15;3.05;;;11.60;77.60;;;;;;5072221;28;20387;-74
2023/10/30 06:04:04;;;;;;;11.77;3.13;;;11.60;78.10;;;;;;5071742;28;20788;-74
2023/10/30 06:06:29;;;;;;;18.23;3.33;;;11.60;78.60;;;;;;5072055;28;20474;-74
2023/10/30 06:08:55;;;;;;;11.60;3.10;;;11.50;80.10;;;;;;5073838;28;20375;-74
2023/10/30 06:11:21;;;;;;;11.77;3.50;;;11.40;80.60;;;;;;5071077;28;20379;-73
2023/10/30 06:13:46;;;;;;;11.02;2.38;;;11.40;81.70;;;;;;5071910;28;20421;-74
2023/10/30 06:16:18;;;;;;;8.30;3.25;;;11.30;83.00;;;;;;5070932;28;20422;-74
2023/10/30 06:18:44;;;;;;;14.35;3.72;;;11.30;83.10;;;;;;5071018;28;20392;-75
2023/10/30 06:21:14;;;;;;;25.80;3.80;;;11.30;83.10;;;;;;5071158;28;20897;-76
2023/10/30 06:23:40;;;;;;;16.45;3.80;;;11.30;83.30;;;;;;5070529;28;20906;-75
2023/10/30 06:26:13;;;;;;;14.87;3.47;;;11.30;84.40;;;;;;5070450;28;20399;-75
2023/10/30 06:28:40;;;;;;;10.88;3.40;;;11.20;85.00;;;;;;5071165;28;20394;-74
2023/10/30 06:31:18;;;;;;;13.70;3.72;;;11.20;85.20;;;;;;5071890;28;20383;-75
2023/10/30 06:33:44;;;;;;;13.23;3.30;;;11.20;85.80;;;;;;5071267;28;20430;-74
2023/10/30 06:36:10;;;;;;;13.90;3.45;;;11.30;85.60;;;;;;5070541;28;20707;-75
2023/10/30 06:38:36;;;;;;;14.35;3.10;;;11.20;86.20;;;;;;5071105;28;20470;-75
2023/10/30 06:41:03;;;;;;;12.30;3.13;;;11.20;87.10;;;;;;5070715;28;20904;-75
2023/10/30 06:43:29;;;;;;;13.87;3.07;;;11.10;87.30;;;;;;5069852;28;20488;-75
2023/10/30 06:46:00;;;;;;;12.95;3.53;;;11.10;87.90;;;;;;5070194;28;20846;-75
2023/10/30 06:48:26;;;;;;;12.60;2.93;;;11.00;90.00;;;;;;5072085;28;20386;-75
2023/10/30 06:50:51;;;;;;;12.83;3.20;;;11.20;88.90;;;;;;5071127;28;20372;-75
2023/10/30 06:53:17;;;;;;;20.53;3.93;;;11.10;89.90;;;;;;5071243;28;20888;-74
2023/10/30 06:55:43;;;;;;;14.23;4.10;;;11.10;90.60;;;;;;5070692;28;20387;-75
2023/10/30 06:58:08;;;;;;;13.43;3.30;;;11.10;90.60;;;;;;5071103;28;20459;-75
2023/10/30 07:00:34;;;;;;;20.30;3.50;;;11.20;90.80;;;;;;5071036;28;20805;-74
2023/10/30 07:03:00;;;;;;;12.38;3.17;;;11.10;91.10;;;;;;5070668;28;20465;-74
2023/10/30 07:05:26;;;;;;;18.90;3.70;;;11.20;90.30;;;;;;5066123;28;20401;-73
2023/10/30 07:07:51;;;;;;;11.63;3.40;;;11.20;91.20;;;;;;5070026;28;20437;-74
2023/10/30 07:10:17;;;;;;;14.17;3.87;;;11.20;91.20;;;;;;5070592;28;20423;-74
2023/10/30 07:12:43;;;;;;;18.05;4.30;;;11.20;92.00;;;;;;5070875;28;20394;-73
2023/10/30 07:15:09;;;;;;;12.80;3.38;;;11.20;92.50;;;;;;5070656;28;20384;-75
2023/10/30 07:17:34;;;;;;;11.13;3.92;;;11.30;91.60;;;;;;5057583;28;20393;-73
2023/10/30 07:20:00;;;;;;;11.68;3.90;;;11.30;90.40;;;;;;5066938;28;20480;-74
2023/10/30 07:22:27;;;;;;;22.50;3.90;;;11.30;90.40;;;;;;5064350;28;20411;-75
2023/10/30 07:24:53;;;;;;;12.10;3.72;;;11.30;89.60;;;;;;5067163;28;20920;-74
2023/10/30 07:27:18;;;;;;;11.95;3.58;;;11.40;90.70;;;;;;5048011;28;20396;-73
2023/10/30 07:29:45;;;;;;;14.88;3.42;;;11.50;90.30;;;;;;5054521;28;20380;-73
2023/10/30 07:32:10;;;;;;;12.20;4.13;;;11.50;88.60;;;;;;5068542;28;20399;-72
2023/10/30 07:34:36;;;;;;;17.95;4.20;;;11.60;88.10;;;;;;5068035;28;20865;-73
2023/10/30 07:37:01;;;;;;;13.45;3.50;;;11.70;88.30;;;;;;5067973;28;20916;-73
2023/10/30 07:39:27;;;;;;;18.75;3.80;;;11.70;88.60;;;;;;5065757;28;20419;-73
2023/10/30 07:41:52;;;;;;;15.03;3.80;;;11.80;84.90;;;;;;5068529;28;20375;-73
2023/10/30 07:44:18;;;;;;;12.17;3.90;;;11.90;84.10;;;;;;5068237;28;20407;-73
2023/10/30 07:46:44;;;;;;;13.65;4.13;;;11.80;85.80;;;;;;5068051;28;20454;-72
2023/10/30 07:49:09;;;;;;;11.25;4.28;;;11.90;84.20;;;;;;5068357;28;20406;-73
2023/10/30 07:51:35;;;;;;;9.20;3.53;;;11.90;84.70;;;;;;5068581;28;20458;-71
2023/10/30 07:54:00;;;;;;;14.37;4.07;;;12.10;83.30;;;;;;5068165;28;20391;-72
2023/10/30 07:56:26;;;;;;;11.70;3.60;;;12.10;82.10;;;;;;5071664;28;20507;-74
2023/10/30 07:58:51;;;;;;;9.05;3.30;;;12.20;81.10;;;;;;5072516;28;20738;-73
2023/10/30 08:01:20;;;;;;;22.23;4.00;;;12.50;77.90;;;;;;5071673;28;20423;-74
2023/10/30 08:03:46;;;;;;;21.10;4.00;;;12.70;74.70;;;;;;5072195;28;20451;-72
2023/10/30 08:06:12;;;;;;;14.27;3.90;;;12.80;72.00;;;;;;5071138;28;20400;-72
2023/10/30 08:08:38;;;;;;;18.50;4.10;;;12.80;71.10;;;;;;5072139;28;20372;-72
2023/10/30 08:11:04;;;;;;;11.47;3.40;;;12.90;70.70;;;;;;5070862;28;20811;-74
2023/10/30 08:13:30;;;;;;;15.00;3.77;;;13.00;70.30;;;;;;5071496;28;20394;-73
2023/10/30 08:15:55;;;;;;;23.50;4.63;;;13.20;67.60;;;;;;5071448;28;20884;-73
2023/10/30 08:18:21;;;;;;;8.23;3.23;;;13.40;66.30;;;;;;5071660;28;20406;-73
2023/10/30 08:20:47;;;;;;;13.37;3.40;;;13.80;62.30;;;;;;5071713;28;20411;-72
2023/10/30 08:23:13;;;;;;;8.52;2.80;;;14.10;59.80;;;;;;5071440;28;20494;-73
2023/10/30 08:25:38;;;;;;;20.03;4.40;;;14.30;57.10;;;;;;5071706;28;20828;-72
2023/10/30 08:28:04;;;;;;;11.88;3.50;;;14.40;57.30;;;;;;5071503;28;20404;-72
2023/10/30 08:30:29;;;;;;;10.80;4.50;;;14.50;54.60;;;;;;5071259;28;20379;-73
2023/10/30 08:32:56;;;;;;;14.25;3.58;;;14.50;54.70;;;;;;5071237;28;20380;-74
2023/10/30 08:35:22;;;;;;;10.38;2.95;;;14.70;53.80;;;;;;5070509;28;20432;-73
2023/10/30 08:37:48;;;;;;;11.32;3.50;;;14.90;51.70;;;;;;5070804;28;20399;-73
2023/10/30 08:40:14;;;;;;;10.60;2.93;;;15.10;51.40;;;;;;5069592;28;20800;-73
2023/10/30 08:42:39;;;;;;;15.57;3.60;;;15.10;50.10;;;;;;5070038;28;20442;-71
2023/10/30 08:45:07;;;;;;;7.47;2.93;;;15.20;49.10;;;;;;5071410;28;20387;-74
2023/10/30 08:47:32;;;;;;;14.70;3.70;;;15.10;49.20;;;;;;5069656;28;20909;-72
2023/10/30 08:49:58;;;;;;;10.80;3.25;;;15.10;49.80;;;;;;5071260;28;20391;-72
2023/10/30 08:52:24;;;;;;;8.60;3.27;;;15.20;49.80;;;;;;5070961;28;20847;-73
2023/10/30 08:54:49;;;;;;;6.60;2.90;;;15.20;49.50;;;;;;5071446;28;20496;-72
2023/10/30 08:57:19;;;;;;;8.00;3.30;;;15.20;48.80;;;;;;5070733;28;20398;-71
2023/10/30 08:59:45;;;;;;;11.35;3.53;;;15.30;49.00;;;;;;5070933;28;20398;-72
2023/10/30 09:02:11;;;;;;;7.68;3.45;;;15.30;48.70;;;;;;5071086;28;20395;-71
2023/10/30 09:04:36;;;;;;;11.07;3.40;;;15.30;47.80;;;;;;5070667;28;20380;-72
2023/10/30 09:07:03;;;;;;;5.22;2.75;;;15.40;47.70;;;;;;5069703;28;20471;-73
2023/10/30 09:09:28;;;;;;;17.70;3.77;;;15.40;47.30;;;;;;5070852;28;20391;-72
2023/10/30 09:11:54;;;;;;;7.23;2.90;;;15.40;46.50;;;;;;5070608;28;20789;-72
2023/10/30 09:14:20;;;;;;;9.90;2.90;;;15.40;45.90;;;;;;5069998;28;20439;-73
2023/10/30 09:16:45;;;;;;;12.10;2.90;;;15.50;45.40;;;;;;5070233;28;20412;-72
2023/10/30 09:19:11;;;;;;;12.77;2.90;;;15.50;46.10;;;;;;5070460;28;20392;-72
2023/10/30 09:21:37;;;;;;;8.57;3.30;;;15.60;44.60;;;;;;5069893;28;20457;-73
2023/10/30 09:24:02;;;;;;;15.73;3.40;;;15.70;44.30;;;;;;5069162;28;20930;-73
2023/10/30 09:26:28;;;;;;;8.93;3.50;;;15.70;43.90;;;;;;5058409;28;20498;-72
2023/10/30 09:28:54;;;;;;;9.57;3.20;;;15.70;44.20;;;;;;5050430;28;21075;-72
2023/10/30 09:31:20;;;;;;;7.70;2.40;;;15.80;43.30;;;;;;5060708;28;20384;-72
2023/10/30 09:33:47;;;;;;;8.35;3.25;;;15.80;42.10;;;;;;5067139;28;20889;-70
2023/10/30 09:38:50;;;;;;;9.60;3.05;;;15.90;42.60;;;;;;5088744;28;20434;-74
2023/10/30 09:41:18;;;;;;;12.75;3.25;;;16.00;42.20;;;;;;5091763;28;20377;-76
2023/10/30 09:43:51;;;;;;;7.00;2.45;;;16.00;42.10;;;;;;5090161;28;20402;-75
2023/10/30 09:46:25;;;;;;;8.80;2.70;;;16.10;42.10;;;;;;5091901;28;20884;-75
2023/10/30 09:48:51;;;;;;;15.00;3.10;;;16.10;41.90;;;;;;5092173;28;20436;-76
2023/10/30 09:51:19;;;;;;;12.75;3.10;;;16.20;40.90;;;;;;5091822;28;20386;-75
2023/10/30 09:53:46;;;;;;;7.40;2.50;;;16.30;40.80;;;;;;5087590;28;20405;-76
2023/10/30 09:56:13;;;;;;;11.40;2.60;;;16.50;39.30;;;;;;5092178;28;20394;-75
2023/10/30 09:58:38;;;;;;;11.60;3.00;;;16.60;39.00;;;;;;5092879;28;20439;-75
2023/10/30 10:01:05;;;;;;;12.00;2.90;;;16.60;38.90;;;;;;5073460;28;20915;-74
2023/10/30 10:03:30;;;;;;;8.68;2.75;;;16.70;38.60;;;;;;5075563;28;20506;-74
2023/10/30 10:05:57;;;;;;;6.23;2.53;;;16.80;37.80;;;;;;5077058;28;20499;-77
2023/10/30 10:08:24;;;;;;;13.23;2.83;;;17.00;38.10;;;;;;5090820;28;20446;-75
2023/10/30 10:11:02;;;;;;;14.95;2.95;;;17.20;37.20;;;;;;5091077;28;20390;-75
2023/10/30 10:13:37;;;;;;;5.65;2.40;;;17.10;37.20;;;;;;5072683;28;20389;-74
2023/10/30 10:16:03;;;;;;;6.45;2.30;;;17.10;36.70;;;;;;5092594;28;20392;-76
2023/10/30 10:18:31;;;;;;;12.38;2.30;;;17.10;36.50;;;;;;5094517;28;20632;-75
2023/10/30 10:21:00;;;;;;;7.53;2.72;;;17.20;35.80;;;;;;5094284;28;20960;-75
2023/10/30 10:23:30;;;;;;;9.02;2.40;;;17.20;36.40;;;;;;5093941;28;20737;-74
2023/10/30 10:25:56;;;;;;;6.22;2.35;;;17.20;35.70;;;;;;5091557;28;20382;-76
2023/10/30 10:28:26;;;;;;;5.97;2.45;;;17.10;35.10;;;;;;5090737;28;20761;-74
2023/10/30 10:30:53;;;;;;;12.40;2.38;;;17.10;35.90;;;;;;5072602;28;20386;-74
2023/10/30 10:33:23;;;;;;;6.18;2.40;;;17.20;35.80;;;;;;5090855;28;20374;-72
2023/10/30 10:35:53;;;;;;;12.25;2.92;;;17.10;36.00;;;;;;5091832;28;20943;-74
2023/10/30 10:38:19;;;;;;;6.47;2.50;;;17.20;35.90;;;;;;5091016;28;20404;-74
2023/10/30 10:40:47;;;;;;;8.50;2.30;;;17.20;35.50;;;;;;5090586;28;20390;-74
2023/10/30 10:43:15;;;;;;;5.53;2.80;;;17.30;35.10;;;;;;5090617;28;20501;-74
2023/10/30 10:45:41;;;;;;;5.97;2.50;;;17.50;34.30;;;;;;5090360;28;20382;-74
2023/10/30 10:48:07;;;;;;;6.82;3.03;;;17.70;33.40;;;;;;5090865;28;20425;-73
2023/10/30 10:50:34;;;;;;;6.27;2.37;;;17.80;33.10;;;;;;5090563;28;20875;-73
2023/10/30 10:53:04;;;;;;;5.32;1.80;;;17.80;32.50;;;;;;5078918;28;20382;-73
2023/10/30 10:55:32;;;;;;;6.72;2.10;;;17.80;32.00;;;;;;5092447;28;20484;-72
2023/10/30 10:58:45;;;;;;;8.90;2.35;;;17.80;32.00;;;;;;5091192;28;20883;-70
2023/10/30 11:01:19;;;;;;;8.82;2.20;;;17.70;32.90;;;;;;5076815;28;20402;-71
2023/10/30 11:03:46;;;;;;;4.00;1.92;;;17.80;33.20;;;;;;5090659;28;20397;-72
2023/10/30 11:06:13;;;;;;;4.55;2.00;;;17.80;32.80;;;;;;5090165;28;20377;-73
2023/10/30 11:08:55;;;;;;;6.03;1.98;;;17.70;32.90;;;;;;5090561;28;20805;-72
2023/10/30 11:11:20;;;;;;;4.25;1.90;;;17.70;33.00;;;;;;5090235;28;20402;-73
2023/10/30 11:14:23;;;;;;;3.80;1.70;;;17.80;33.20;;;;;;5071986;28;20417;-69
2023/10/30 11:16:58;;;;;;;5.90;1.83;;;17.70;32.80;;;;;;5089985;28;20382;-70
2023/10/30 11:19:26;;;;;;;6.72;2.00;;;17.70;32.80;;;;;;5090035;28;20513;-73
2023/10/30 11:21:51;;;;;;;4.30;1.70;;;17.80;32.40;;;;;;5090150;28;20381;-71
2023/10/30 11:24:39;;;;;;;12.20;2.70;;;17.80;32.10;;;;;;5089779;28;20402;-71
2023/10/30 11:27:28;;;;;;;2.65;1.65;;;18.00;32.30;;;;;;5089525;28;20425;-76
2023/10/30 11:30:08;;;;;;;6.20;2.17;;;17.90;33.10;;;;;;5085531;28;20386;-75
2023/10/30 11:32:45;;;;;;;8.48;2.20;;;17.70;32.80;;;;;;5094441;28;20378;-73
2023/10/30 11:35:11;;;;;;;5.68;2.03;;;17.50;33.30;;;;;;5075699;28;20899;-75
2023/10/30 11:37:37;;;;;;;3.20;1.98;;;17.40;33.70;;;;;;5095185;28;20398;-75
2023/10/30 11:40:07;;;;;;;4.50;1.80;;;17.20;34.30;;;;;;5093834;28;20392;-73
2023/10/30 11:42:39;;;;;;;2.38;1.77;;;17.00;35.50;;;;;;5109357;28;20464;-73
2023/10/30 11:45:15;;;;;;;6.80;2.60;;;16.80;36.00;;;;;;5096838;28;20394;-74
2023/10/30 11:48:05;;;;;;;4.95;2.00;;;16.80;36.60;;;;;;5093599;28;20717;-73
2023/10/30 11:50:44;;;;;;;4.40;2.53;;;16.80;37.00;;;;;;5078388;28;20398;-72
2023/10/30 11:53:14;;;;;;;7.03;2.20;;;16.80;37.00;;;;;;5093533;28;20398;-71
2023/10/30 11:55:40;;;;;;;7.78;2.55;;;16.80;36.80;;;;;;5092561;28;20475;-73
2023/10/30 11:58:11;;;;;;;4.07;2.10;;;16.90;36.90;;;;;;5093349;28;20389;-72
2023/10/30 12:00:44;;;;;;;3.70;2.25;;;16.90;36.80;;;;;;5093763;28;20374;-73
2023/10/30 12:03:10;;;;;;;5.93;2.28;;;16.90;36.50;;;;;;5072642;28;20410;-73
2023/10/30 12:05:36;;;;;;;4.20;2.00;;;17.00;36.30;;;;;;5074979;28;20454;-72
2023/10/30 12:08:04;;;;;;;15.35;4.15;;;17.00;36.70;;;;;;5074957;28;20906;-72
2023/10/30 12:10:30;;;;;;;5.45;2.60;;;16.90;37.10;;;;;;5093443;28;20728;-72
2023/10/30 12:12:56;;;;;;;5.10;2.58;;;16.90;37.20;;;;;;5075595;28;20925;-73
2023/10/30 12:15:21;;;;;;;6.85;2.20;;;16.90;37.30;;;;;;5093540;28;20528;-72
2023/10/30 12:17:47;;;;;;;6.00;2.00;;;16.90;37.40;;;;;;5075498;28;20764;-73
2023/10/30 12:20:13;;;;;;;3.43;2.30;;;16.80;37.70;;;;;;5093555;28;20406;-73
2023/10/30 12:22:42;;;;;;;6.68;2.80;;;16.70;38.30;;;;;;5093417;28;20449;-71
2023/10/30 12:25:13;;;;;;;3.60;2.00;;;16.80;38.50;;;;;;5093183;28;20374;-72
2023/10/30 12:27:39;;;;;;;6.15;2.08;;;16.70;38.40;;;;;;5094684;28;20458;-73
2023/10/30 12:30:17;;;;;;;5.50;3.70;;;16.60;39.00;;;;;;5094607;28;20474;-73
2023/10/30 12:32:53;;;;;;;10.10;3.30;;;16.80;39.30;;;;;;5094814;28;20378;-73
2023/10/30 12:35:19;;;;;;;4.30;2.38;;;16.80;38.80;;;;;;5094829;28;20406;-71
2023/10/30 12:37:44;;;;;;;6.43;2.97;;;16.80;38.90;;;;;;5094258;28;20437;-73
2023/10/30 12:40:15;;;;;;;8.93;3.40;;;16.70;39.30;;;;;;5093104;28;20390;-73
2023/10/30 12:42:42;;;;;;;7.00;2.45;;;16.60;39.70;;;;;;5091724;28;20450;-71